Etusivu
METAR-TAF:

METAR-TAF

Lentoasemat :

Kuopio, Suomi

Kuopion lentoasema

Leveyspiiri: 63-01N, Pituuspiiri: 027-48E, korkeus merenpinnasta: 98 m

Tämänhetkinen sää

Tämä raportti tehtiin 15 minuuttia sitten, kello 09.50 UTC
Tuuli 5 kn etelästä/lounaasta, vaihdellen etelän/kaakon ja lännen välillä
Lämpötila 9°C
Kosteus 31%
Ilmanpaine 1019 hPa
Näkyvyys 10 km tai enemmän
ei pilviä alle 1500 m:ssä eikä cumulonimbus-pilviä

METAR: EFKU 270950Z AUTO 20005KT 160V260 CAVOK 09/M07 Q1019

Aika: 13:05 (10:05 UTC)

Sääennuste

Tämä raportti tehtiin 1 tunti ja 41 minuuttia sitten, kello 08.24 UTC
Ennuste voimassa 27. päivästä klo 09 UTC - 28. päivään klo 09 UTC
Tuuli 5 kn kaakosta
Näkyvyys 10 km tai enemmän
Hajanaisia pilviä 4000 ft:n korkeudessa
Ajoittain
27. päivästä klo 11 UTC - 27. päivään klo 20 UTC
Näkyvyys: 6000 m
heikkoa sadetta

TAF: EFKU 270824Z 2709/2809 14005KT 9999 SCT040 TEMPO 2711/2720 6000 -RA

Säähavainnot ja -ennusteet yli 4000 lentoasemalta (METAR- ja TAF-raportit).

Käytössä olevat sääasemat on merkitty karttaan keltaisilla ja punaisilla pisteillä.

Aseta hiiri pisteen päälle nähdäksesi sääaseman nimen.

Klikkaa sitten nähdäksesi säähavainnot ja -ennusteet.

Kartan vaihtaminen: klikkaa mustalla rastilla varustettuja vihreitä pisteitä, niin voit zoomata sisään; viivalla varustettua vihreää pistettä, niin voit zoomata ulos tai vihreitä nuolia, niin pääset viereisille kartoille.


METAR-TAF: